Time;durP1;ratioP1;P1;durP2;ratioP2;P2;SDS_P1;SDS_P2;PMS_P1;PMS_P2;Temp;Humidity;BMP_temperature;BMP_pressure;BME280_temperature;BME280_humidity;BME280_pressure;Samples;Min_cycle;Max_cycle;Signal;HPM_P1;HPM_P2
2023/10/19 00:00:51;;;;;;;7.43;5.50;;;12.80;99.90;;;;;;5034598;28;20726;-77
2023/10/19 00:03:18;;;;;;;8.07;5.70;;;12.80;99.90;;;;;;5032690;28;20683;-78
2023/10/19 00:05:46;;;;;;;6.63;6.03;;;12.80;99.90;;;;;;5000246;28;20581;-77
2023/10/19 00:08:17;;;;;;;9.33;7.93;;;12.80;99.90;;;;;;5036445;28;20604;-77
2023/10/19 00:11:02;;;;;;;5.67;5.10;;;12.80;99.90;;;;;;5032933;28;20987;-78
2023/10/19 00:13:29;;;;;;;8.63;7.73;;;12.90;99.90;;;;;;5033991;28;20632;-78
2023/10/19 00:15:57;;;;;;;7.32;6.57;;;12.90;99.90;;;;;;5033059;28;20591;-78
2023/10/19 00:18:24;;;;;;;5.80;5.17;;;12.90;99.90;;;;;;5034360;28;20190;-78
2023/10/19 00:23:30;;;;;;;8.60;6.00;;;13.00;99.90;;;;;;5033960;28;20166;-78
2023/10/19 00:25:57;;;;;;;6.87;6.10;;;13.00;99.90;;;;;;5032796;28;21161;-78
2023/10/19 00:28:25;;;;;;;6.47;5.87;;;13.10;99.90;;;;;;5032966;28;20612;-79
2023/10/19 00:30:52;;;;;;;8.80;7.57;;;13.10;99.90;;;;;;5016220;28;20592;-78
2023/10/19 00:33:26;;;;;;;7.10;6.30;;;13.20;99.90;;;;;;4999350;28;21048;-79
2023/10/19 00:36:00;;;;;;;7.93;7.13;;;13.20;99.90;;;;;;5033889;28;20997;-78
2023/10/19 00:38:27;;;;;;;7.57;6.37;;;13.20;99.90;;;;;;5016254;28;21196;-78
2023/10/19 00:41:06;;;;;;;7.33;6.53;;;13.20;99.90;;;;;;5033877;28;20572;-78
2023/10/19 00:43:37;;;;;;;9.30;6.20;;;13.20;99.90;;;;;;5015732;28;20604;-78
2023/10/19 00:48:50;;;;;;;9.20;6.47;;;13.30;99.90;;;;;;5032232;28;20655;-78
2023/10/19 00:54:08;;;;;;;7.70;6.97;;;13.40;99.90;;;;;;5015745;28;20632;-77
2023/10/19 00:56:34;;;;;;;6.90;5.97;;;13.40;99.90;;;;;;5032250;28;20641;-77
2023/10/19 00:59:30;;;;;;;6.50;5.80;;;13.50;99.90;;;;;;5032679;28;20700;-77
2023/10/19 01:01:55;;;;;;;7.10;6.07;;;13.50;99.90;;;;;;5031765;28;20990;-78
2023/10/19 01:04:23;;;;;;;6.13;5.53;;;13.50;99.90;;;;;;5015559;28;20654;-78
2023/10/19 01:07:04;;;;;;;7.40;6.67;;;13.50;99.90;;;;;;5032392;28;20863;-78
2023/10/19 01:09:34;;;;;;;7.78;7.03;;;13.50;99.90;;;;;;5037267;28;20609;-77
2023/10/19 01:12:05;;;;;;;6.50;5.80;;;13.50;99.90;;;;;;5026115;28;20619;-78
2023/10/19 01:14:32;;;;;;;6.73;6.00;;;13.60;99.90;;;;;;5015579;28;20635;-77
2023/10/19 01:17:01;;;;;;;7.55;6.25;;;13.60;99.90;;;;;;5040232;28;20948;-78
2023/10/19 01:19:27;;;;;;;6.57;5.87;;;13.70;99.90;;;;;;5024919;28;20170;-78
2023/10/19 01:21:59;;;;;;;6.60;5.30;;;13.70;99.90;;;;;;5030046;28;20608;-77
2023/10/19 01:24:42;;;;;;;8.30;6.27;;;13.70;99.90;;;;;;5012923;28;20588;-77
2023/10/19 01:27:11;;;;;;;5.83;4.93;;;13.80;99.90;;;;;;5025805;28;20588;-78
2023/10/19 01:29:39;;;;;;;9.40;7.80;;;13.80;99.90;;;;;;5032208;28;20583;-78
2023/10/19 01:32:08;;;;;;;6.50;5.90;;;13.80;99.90;;;;;;5031868;28;20591;-78
2023/10/19 01:34:35;;;;;;;5.90;5.30;;;13.90;99.90;;;;;;5032018;28;20667;-77
2023/10/19 01:37:04;;;;;;;4.63;4.03;;;13.90;99.90;;;;;;5031939;28;21324;-78
2023/10/19 01:39:32;;;;;;;8.23;5.47;;;14.00;99.90;;;;;;4999337;28;20185;-77
2023/10/19 01:41:58;;;;;;;5.60;4.83;;;14.00;99.90;;;;;;5015177;28;20595;-78
2023/10/19 01:44:25;;;;;;;6.40;5.80;;;14.10;99.90;;;;;;5017240;28;20584;-78
2023/10/19 01:46:50;;;;;;;6.40;5.87;;;14.00;99.90;;;;;;5031782;28;20630;-77
2023/10/19 01:49:28;;;;;;;6.20;5.60;;;14.10;99.90;;;;;;5031950;28;20608;-77
2023/10/19 01:51:55;;;;;;;6.37;5.77;;;14.10;99.90;;;;;;5031183;28;20212;-78
2023/10/19 01:54:24;;;;;;;6.47;5.90;;;14.20;99.90;;;;;;5031383;28;20636;-78
2023/10/19 01:56:56;;;;;;;8.70;6.87;;;14.20;99.90;;;;;;5032334;28;20597;-78
2023/10/19 01:59:27;;;;;;;7.63;5.50;;;14.30;99.90;;;;;;5017749;28;20595;-78
2023/10/19 02:01:54;;;;;;;6.23;5.63;;;14.30;99.90;;;;;;5031314;28;20589;-78
2023/10/19 02:04:21;;;;;;;6.57;5.57;;;14.30;99.90;;;;;;5031400;28;20580;-77
2023/10/19 02:06:48;;;;;;;5.50;4.97;;;14.30;99.90;;;;;;5014805;28;20614;-78
2023/10/19 02:11:45;;;;;;;5.87;5.13;;;14.30;99.90;;;;;;5014205;28;20692;-78
2023/10/19 02:14:14;;;;;;;5.90;5.13;;;14.40;99.90;;;;;;5030883;28;20643;-78
2023/10/19 02:16:52;;;;;;;7.33;4.90;;;14.40;99.90;;;;;;5030510;28;20580;-78
2023/10/19 02:19:20;;;;;;;6.27;5.53;;;14.40;99.90;;;;;;5031118;28;20608;-78
2023/10/19 02:21:48;;;;;;;5.50;5.00;;;14.40;99.90;;;;;;5030850;28;20577;-78
2023/10/19 02:24:15;;;;;;;7.00;6.30;;;14.30;99.90;;;;;;5014404;28;20645;-78
2023/10/19 02:26:46;;;;;;;6.83;6.23;;;14.30;99.90;;;;;;5014508;28;20575;-77
2023/10/19 02:29:13;;;;;;;7.67;6.00;;;14.30;99.90;;;;;;5031199;28;20773;-77
2023/10/19 02:31:42;;;;;;;5.87;5.30;;;14.30;99.90;;;;;;5030439;28;20592;-77
2023/10/19 02:34:10;;;;;;;8.17;6.37;;;14.30;99.90;;;;;;5030856;28;20628;-77
2023/10/19 02:36:37;;;;;;;8.37;7.67;;;14.30;99.90;;;;;;5035388;28;20678;-77
2023/10/19 02:39:09;;;;;;;9.00;7.17;;;14.30;99.90;;;;;;5014522;28;20620;-77
2023/10/19 02:41:41;;;;;;;8.30;5.50;;;14.30;99.90;;;;;;5031792;28;20939;-78
2023/10/19 02:46:50;;;;;;;6.13;5.13;;;14.30;99.90;;;;;;5014484;28;21185;-78
2023/10/19 02:49:22;;;;;;;7.83;7.03;;;14.30;99.90;;;;;;5015074;28;20623;-78
2023/10/19 02:51:50;;;;;;;6.50;5.80;;;14.30;99.90;;;;;;5031933;28;20940;-77
2023/10/19 02:54:19;;;;;;;5.50;5.00;;;14.30;99.90;;;;;;5013777;28;20660;-78
2023/10/19 02:56:53;;;;;;;8.03;6.77;;;14.30;99.90;;;;;;5030272;28;20592;-78
2023/10/19 02:59:24;;;;;;;5.27;4.77;;;14.30;99.90;;;;;;5013815;28;20615;-78
2023/10/19 03:01:52;;;;;;;7.00;6.40;;;14.30;99.90;;;;;;5029998;28;20589;-78
2023/10/19 03:04:18;;;;;;;7.10;5.70;;;14.30;99.90;;;;;;5030330;28;20671;-77
2023/10/19 03:06:44;;;;;;;8.07;7.20;;;14.30;99.90;;;;;;5014124;28;21287;-78
2023/10/19 03:09:13;;;;;;;7.03;6.13;;;14.30;99.90;;;;;;5013896;28;20734;-78
2023/10/19 03:11:43;;;;;;;6.37;5.53;;;14.30;99.90;;;;;;5029737;28;20674;-75
2023/10/19 03:14:11;;;;;;;5.90;5.30;;;14.40;99.90;;;;;;5029779;28;20632;-76
2023/10/19 03:16:41;;;;;;;6.13;5.07;;;14.40;99.90;;;;;;5030034;28;20588;-76
2023/10/19 03:19:07;;;;;;;7.07;6.20;;;14.40;99.90;;;;;;5029784;28;20695;-76
2023/10/19 03:21:41;;;;;;;7.67;7.03;;;14.40;99.90;;;;;;5029560;28;20576;-75
2023/10/19 03:24:12;;;;;;;8.70;5.90;;;14.40;99.90;;;;;;5029665;28;20676;-76
2023/10/19 03:26:43;;;;;;;6.33;5.77;;;14.40;99.90;;;;;;5013362;28;20651;-76
2023/10/19 03:29:15;;;;;;;6.87;6.17;;;14.40;99.90;;;;;;5012993;28;20615;-76
2023/10/19 03:31:45;;;;;;;5.60;5.10;;;14.50;99.90;;;;;;5024848;28;20596;-75
2023/10/19 03:34:12;;;;;;;4.40;4.00;;;14.50;99.90;;;;;;5031486;28;20616;-78
2023/10/19 03:36:39;;;;;;;4.80;4.30;;;14.50;99.90;;;;;;5013567;28;20608;-78
2023/10/19 03:39:12;;;;;;;5.47;4.97;;;14.50;99.90;;;;;;5030876;28;20699;-78
2023/10/19 03:41:44;;;;;;;5.67;5.17;;;14.50;99.90;;;;;;5013119;28;20934;-78
2023/10/19 03:44:19;;;;;;;6.67;6.03;;;14.50;99.90;;;;;;5005632;28;21233;-78
2023/10/19 03:46:57;;;;;;;7.27;6.57;;;14.50;99.90;;;;;;5013033;28;20596;-78
2023/10/19 03:49:30;;;;;;;6.00;5.40;;;14.50;99.90;;;;;;5033220;28;20604;-78
2023/10/19 03:51:58;;;;;;;5.90;5.30;;;14.50;99.90;;;;;;5029528;28;20734;-78
2023/10/19 03:54:26;;;;;;;6.67;5.60;;;14.50;99.90;;;;;;5029677;28;20620;-78
2023/10/19 03:56:53;;;;;;;6.23;5.63;;;14.50;99.90;;;;;;5013312;28;20657;-78
2023/10/19 03:59:20;;;;;;;6.87;6.17;;;14.60;99.90;;;;;;5029271;28;20608;-78
2023/10/19 04:01:46;;;;;;;6.03;5.27;;;14.60;99.90;;;;;;5029201;28;20598;-78
2023/10/19 04:04:13;;;;;;;4.60;3.80;;;14.60;99.90;;;;;;5029296;28;20599;-77
2023/10/19 04:06:40;;;;;;;5.23;4.73;;;14.70;99.90;;;;;;5030942;28;20659;-77
2023/10/19 04:09:06;;;;;;;6.70;5.43;;;14.70;99.90;;;;;;5029473;28;20636;-78
2023/10/19 04:11:32;;;;;;;5.60;4.83;;;14.70;99.90;;;;;;5029120;28;21027;-78
2023/10/19 04:14:03;;;;;;;6.30;4.37;;;14.70;99.90;;;;;;5030696;28;20642;-78
2023/10/19 04:16:31;;;;;;;5.70;5.10;;;14.80;99.90;;;;;;5029598;28;20589;-78
2023/10/19 04:18:58;;;;;;;5.40;4.73;;;14.80;99.90;;;;;;5029116;28;20648;-78
2023/10/19 04:21:24;;;;;;;7.43;6.20;;;14.70;99.90;;;;;;5030559;28;21103;-78
2023/10/19 04:23:49;;;;;;;7.13;5.90;;;14.70;99.90;;;;;;5029321;28;20641;-78
2023/10/19 04:26:18;;;;;;;4.97;4.47;;;14.70;99.90;;;;;;5032869;28;20581;-78
2023/10/19 04:28:44;;;;;;;7.50;5.30;;;14.70;99.90;;;;;;5029592;28;20201;-78
2023/10/19 04:31:14;;;;;;;6.37;5.70;;;14.70;99.90;;;;;;5029281;28;20580;-78
2023/10/19 04:33:42;;;;;;;5.60;4.90;;;14.70;99.90;;;;;;5028723;28;20640;-77
2023/10/19 04:36:11;;;;;;;6.07;5.47;;;14.70;99.90;;;;;;5027415;28;20939;-77
2023/10/19 04:38:37;;;;;;;5.00;4.50;;;14.70;99.90;;;;;;5029262;28;20604;-77
2023/10/19 04:41:07;;;;;;;5.53;5.00;;;14.80;99.90;;;;;;5031884;28;20596;-77
2023/10/19 04:43:34;;;;;;;5.83;5.33;;;14.80;99.90;;;;;;5032417;28;20584;-77
2023/10/19 04:45:59;;;;;;;4.20;3.57;;;14.80;99.90;;;;;;5033962;28;20584;-76
2023/10/19 04:48:25;;;;;;;5.13;4.63;;;14.80;99.90;;;;;;5032380;28;20970;-77
2023/10/19 04:50:51;;;;;;;8.70;4.87;;;14.90;99.90;;;;;;5033943;28;20549;-77
2023/10/19 04:53:16;;;;;;;5.80;5.20;;;14.90;99.90;;;;;;5033807;28;20229;-77
2023/10/19 04:55:43;;;;;;;5.87;4.63;;;14.90;99.90;;;;;;5034165;28;20178;-78
2023/10/19 04:58:10;;;;;;;6.00;5.17;;;14.90;99.90;;;;;;5032938;28;20198;-78
2023/10/19 05:00:36;;;;;;;5.47;4.97;;;14.90;99.90;;;;;;5033865;28;21146;-78
2023/10/19 05:03:02;;;;;;;4.90;4.40;;;14.90;99.90;;;;;;5034818;28;20584;-78
2023/10/19 05:05:27;;;;;;;8.07;4.30;;;14.90;99.90;;;;;;5032687;28;20638;-78
2023/10/19 05:07:53;;;;;;;5.27;4.77;;;14.90;99.90;;;;;;5033610;28;20284;-78
2023/10/19 05:10:19;;;;;;;5.53;4.60;;;14.90;99.90;;;;;;5033789;28;21137;-75
2023/10/19 05:12:45;;;;;;;5.40;4.90;;;14.90;99.90;;;;;;5031832;28;20185;-75
2023/10/19 05:15:11;;;;;;;7.03;3.80;;;15.00;99.90;;;;;;5032037;28;21165;-75
2023/10/19 05:17:36;;;;;;;6.10;4.80;;;15.00;99.90;;;;;;5031669;28;20204;-75
2023/10/19 05:20:05;;;;;;;4.90;4.50;;;15.00;99.90;;;;;;5048432;28;20177;-75
2023/10/19 05:22:32;;;;;;;5.13;4.37;;;15.00;99.90;;;;;;5031737;28;20224;-75
2023/10/19 05:24:58;;;;;;;6.43;4.07;;;15.10;99.90;;;;;;5033056;28;20671;-75
2023/10/19 05:27:24;;;;;;;6.77;4.77;;;15.10;99.90;;;;;;5031724;28;20639;-75
2023/10/19 05:29:51;;;;;;;6.47;5.40;;;15.10;99.90;;;;;;5031566;28;21099;-75
2023/10/19 05:32:58;;;;;;;5.60;3.30;;;15.10;99.90;;;;;;5031552;28;20181;-76
2023/10/19 05:35:26;;;;;;;5.43;4.37;;;15.10;99.90;;;;;;5032975;28;20615;-75
2023/10/19 05:37:59;;;;;;;7.87;4.50;;;15.20;99.90;;;;;;5031280;28;21193;-74
2023/10/19 05:40:29;;;;;;;7.97;4.13;;;15.20;99.90;;;;;;5032579;28;20634;-75
2023/10/19 05:43:00;;;;;;;4.83;4.40;;;15.20;99.90;;;;;;5031372;28;20684;-74
2023/10/19 05:45:27;;;;;;;5.07;3.77;;;15.20;99.90;;;;;;5031738;28;20592;-75
2023/10/19 05:47:54;;;;;;;4.80;4.30;;;15.20;99.90;;;;;;5032274;28;20808;-75
2023/10/19 05:50:20;;;;;;;5.17;4.63;;;15.20;99.90;;;;;;5032224;28;20585;-75
2023/10/19 05:52:47;;;;;;;5.77;4.60;;;15.20;99.90;;;;;;5030055;28;20638;-75
2023/10/19 05:55:12;;;;;;;5.10;4.60;;;15.20;99.90;;;;;;5031124;28;20225;-75
2023/10/19 05:57:42;;;;;;;5.77;4.83;;;15.20;99.90;;;;;;5031325;28;20659;-75
2023/10/19 06:00:13;;;;;;;5.17;3.77;;;15.20;99.90;;;;;;5032696;28;20174;-75
2023/10/19 06:02:46;;;;;;;5.23;4.63;;;15.20;99.90;;;;;;5032134;28;20584;-75
2023/10/19 06:05:15;;;;;;;5.13;4.20;;;15.20;99.90;;;;;;5032008;28;20965;-74
2023/10/19 06:07:42;;;;;;;6.17;4.87;;;15.30;99.90;;;;;;5030938;28;20616;-74
2023/10/19 06:10:15;;;;;;;5.50;4.60;;;15.30;99.90;;;;;;5031728;28;20588;-74
2023/10/19 06:12:42;;;;;;;6.20;5.43;;;15.30;99.90;;;;;;5021968;28;21297;-74
2023/10/19 06:15:10;;;;;;;6.10;5.03;;;15.30;99.90;;;;;;5032080;28;20635;-74
2023/10/19 06:17:40;;;;;;;7.40;4.60;;;15.30;99.90;;;;;;5032151;28;20979;-74
2023/10/19 06:20:23;;;;;;;4.63;4.23;;;15.30;99.90;;;;;;5013166;28;20589;-74
2023/10/19 06:23:04;;;;;;;4.97;4.40;;;15.40;99.90;;;;;;5030455;28;20581;-74
2023/10/19 06:25:30;;;;;;;5.20;4.07;;;15.40;99.90;;;;;;5031939;28;20576;-74
2023/10/19 06:27:57;;;;;;;5.27;4.77;;;15.40;99.90;;;;;;5031553;28;20608;-74
2023/10/19 06:30:23;;;;;;;5.83;4.87;;;15.50;99.90;;;;;;5030694;28;20672;-74
2023/10/19 06:32:52;;;;;;;5.27;4.10;;;15.50;99.90;;;;;;5030170;28;20642;-74
2023/10/19 06:35:20;;;;;;;6.03;4.97;;;15.50;99.90;;;;;;5030458;28;20632;-74
2023/10/19 06:37:46;;;;;;;6.67;4.27;;;15.50;99.90;;;;;;5030302;28;20977;-75
2023/10/19 06:40:16;;;;;;;6.63;5.30;;;15.50;99.90;;;;;;5030453;28;21166;-74
2023/10/19 06:42:46;;;;;;;5.83;4.53;;;15.50;99.90;;;;;;5030060;28;20603;-74
2023/10/19 06:45:16;;;;;;;6.90;5.60;;;15.60;99.90;;;;;;5030365;28;20642;-75
2023/10/19 06:47:44;;;;;;;4.40;4.00;;;15.60;99.90;;;;;;5031332;28;20629;-74
2023/10/19 06:50:15;;;;;;;5.80;5.27;;;15.60;99.90;;;;;;5030278;28;20593;-74
2023/10/19 06:52:42;;;;;;;6.47;5.67;;;15.70;99.90;;;;;;5031144;28;20588;-74
2023/10/19 06:55:13;;;;;;;5.03;4.33;;;15.70;99.90;;;;;;5046736;28;20639;-75
2023/10/19 06:57:49;;;;;;;6.70;5.10;;;15.70;99.90;;;;;;5029898;28;20613;-76
2023/10/19 07:00:20;;;;;;;8.30;5.10;;;15.80;99.90;;;;;;5031253;28;20591;-75
2023/10/19 07:02:47;;;;;;;5.77;5.17;;;15.80;99.90;;;;;;5029347;28;20947;-75
2023/10/19 07:05:20;;;;;;;7.07;5.40;;;15.80;99.90;;;;;;5031423;28;21035;-74
2023/10/19 07:07:46;;;;;;;4.27;3.80;;;15.80;99.90;;;;;;5031388;28;20612;-73
2023/10/19 07:10:13;;;;;;;4.80;4.03;;;15.90;99.90;;;;;;5030169;28;20585;-75
2023/10/19 07:12:41;;;;;;;5.60;5.03;;;15.90;99.90;;;;;;5030276;28;20585;-74
2023/10/19 07:15:08;;;;;;;6.90;5.77;;;15.90;99.90;;;;;;5030521;28;20638;-75
2023/10/19 07:17:37;;;;;;;6.60;5.73;;;16.00;99.90;;;;;;5045934;28;20613;-74
2023/10/19 07:20:06;;;;;;;7.10;4.47;;;16.00;99.90;;;;;;5030892;28;20627;-74
2023/10/19 07:22:39;;;;;;;6.43;5.57;;;16.00;99.90;;;;;;5029226;28;20608;-74
2023/10/19 07:25:08;;;;;;;6.00;5.40;;;16.00;99.90;;;;;;5029470;28;20956;-74
2023/10/19 07:27:34;;;;;;;6.70;5.33;;;16.10;99.90;;;;;;5030664;28;20971;-73
2023/10/19 07:30:01;;;;;;;7.43;5.77;;;16.10;99.90;;;;;;5030392;28;20584;-74
2023/10/19 07:32:27;;;;;;;7.13;5.40;;;16.20;99.90;;;;;;5029229;28;20577;-74
2023/10/19 07:34:54;;;;;;;6.87;6.20;;;16.20;99.90;;;;;;5030358;28;20632;-74
2023/10/19 07:37:21;;;;;;;5.63;4.63;;;16.20;99.90;;;;;;5029181;28;20592;-73
2023/10/19 07:39:47;;;;;;;5.10;4.60;;;16.20;99.90;;;;;;5029410;28;20672;-74
2023/10/19 07:42:14;;;;;;;6.03;5.40;;;16.30;99.90;;;;;;5030151;28;20577;-74
2023/10/19 07:44:41;;;;;;;6.03;5.43;;;16.30;99.90;;;;;;5030420;28;20589;-74
2023/10/19 07:47:09;;;;;;;7.40;5.73;;;16.30;99.90;;;;;;5029832;28;20961;-74
2023/10/19 07:49:39;;;;;;;9.00;5.47;;;16.30;99.90;;;;;;5029333;28;20587;-74
2023/10/19 07:52:10;;;;;;;6.23;5.20;;;16.40;99.90;;;;;;5028915;28;21093;-73
2023/10/19 07:54:37;;;;;;;5.00;4.50;;;16.40;99.90;;;;;;5030374;28;21013;-75
2023/10/19 07:57:05;;;;;;;7.10;5.17;;;16.40;99.90;;;;;;5030330;28;20585;-74
2023/10/19 07:59:34;;;;;;;11.30;5.40;;;16.50;99.90;;;;;;5030481;28;20592;-75
2023/10/19 08:02:04;;;;;;;5.67;5.00;;;16.50;99.90;;;;;;5028228;28;21094;-75
2023/10/19 08:04:30;;;;;;;9.23;4.70;;;16.60;99.90;;;;;;5029108;28;20580;-74
2023/10/19 08:06:57;;;;;;;7.90;5.00;;;16.60;99.90;;;;;;5030513;28;20645;-75
2023/10/19 08:09:23;;;;;;;4.37;3.97;;;16.60;99.90;;;;;;5020977;28;20588;-75
2023/10/19 08:11:53;;;;;;;6.43;5.30;;;16.70;99.90;;;;;;5029922;28;20703;-75
2023/10/19 08:14:19;;;;;;;6.70;4.50;;;16.80;99.90;;;;;;5030208;28;20635;-75
2023/10/19 08:16:45;;;;;;;6.80;5.60;;;16.90;99.90;;;;;;5034265;28;20702;-74
2023/10/19 08:19:12;;;;;;;5.50;4.63;;;17.00;99.90;;;;;;5032867;28;21371;-74
2023/10/19 08:21:37;;;;;;;6.60;4.70;;;17.10;99.90;;;;;;5032700;28;20181;-74
2023/10/19 08:24:04;;;;;;;6.40;5.40;;;17.20;99.90;;;;;;5033940;28;20592;-74
2023/10/19 08:26:31;;;;;;;7.20;5.60;;;17.20;99.90;;;;;;5032925;28;20221;-73
2023/10/19 08:28:58;;;;;;;5.20;4.70;;;17.30;99.90;;;;;;5033703;28;20596;-74
2023/10/19 08:31:24;;;;;;;5.70;4.97;;;17.40;99.90;;;;;;5032365;28;20588;-74
2023/10/19 08:33:50;;;;;;;7.70;4.60;;;17.40;99.90;;;;;;5033397;28;20631;-74
2023/10/19 08:36:19;;;;;;;7.40;4.37;;;17.60;99.90;;;;;;5034226;28;20584;-75
2023/10/19 08:38:46;;;;;;;6.10;4.17;;;17.70;99.90;;;;;;5033530;28;20695;-74
2023/10/19 08:41:15;;;;;;;6.67;4.50;;;17.90;99.90;;;;;;5039032;28;20588;-74
2023/10/19 08:43:41;;;;;;;5.30;4.40;;;18.10;99.90;;;;;;5027419;28;20627;-74
2023/10/19 08:46:07;;;;;;;4.13;2.87;;;18.90;99.90;;;;;;5033544;28;21137;-74
2023/10/19 08:48:37;;;;;;;6.87;3.40;;;19.80;99.90;;;;;;5032223;28;20260;-74
2023/10/19 08:51:10;;;;;;;4.53;3.17;;;20.80;99.90;;;;;;5033472;28;20599;-73
2023/10/19 08:53:41;;;;;;;3.70;2.53;;;22.00;99.90;;;;;;5031412;28;20632;-74
2023/10/19 08:56:09;;;;;;;4.00;2.53;;;23.10;99.90;;;;;;5032391;28;20584;-75
2023/10/19 08:58:35;;;;;;;6.67;2.93;;;24.10;99.90;;;;;;5032078;28;20610;-74
2023/10/19 09:01:09;;;;;;;6.80;2.53;;;25.10;99.90;;;;;;5033437;28;20580;-74
2023/10/19 09:03:35;;;;;;;4.97;3.00;;;25.80;99.90;;;;;;5031135;28;20596;-75
2023/10/19 09:06:02;;;;;;;4.53;2.37;;;26.60;99.90;;;;;;5033388;28;20646;-75
2023/10/19 09:08:38;;;;;;;4.57;2.13;;;27.30;99.90;;;;;;5031932;28;20616;-74
2023/10/19 09:11:13;;;;;;;3.80;1.87;;;27.80;99.90;;;;;;5031542;28;20609;-76
2023/10/19 09:13:50;;;;;;;4.80;1.77;;;28.40;99.90;;;;;;5032761;28;20585;-75
2023/10/19 09:16:17;;;;;;;4.10;1.40;;;28.60;99.90;;;;;;5032984;28;20583;-76
2023/10/19 09:18:44;;;;;;;3.83;1.57;;;28.80;99.90;;;;;;5031932;28;20626;-75
2023/10/19 09:21:23;;;;;;;3.40;1.77;;;28.90;99.90;;;;;;5032963;28;21208;-75
2023/10/19 09:23:54;;;;;;;2.93;1.43;;;29.20;99.90;;;;;;5031629;28;20647;-75
2023/10/19 09:26:21;;;;;;;4.63;1.40;;;29.20;99.90;;;;;;5032789;28;20634;-75
2023/10/19 09:28:51;;;;;;;3.60;1.90;;;29.00;99.90;;;;;;5032845;28;20985;-75
2023/10/19 09:31:18;;;;;;;3.43;1.37;;;28.60;99.90;;;;;;5031475;28;20607;-75
2023/10/19 09:33:45;;;;;;;5.20;1.90;;;28.10;99.90;;;;;;5032451;28;20607;-76
2023/10/19 09:36:15;;;;;;;4.10;1.40;;;27.60;99.90;;;;;;5032684;28;20672;-75
2023/10/19 09:38:48;;;;;;;4.70;1.83;;;27.40;99.90;;;;;;5048033;28;20623;-75
2023/10/19 09:41:15;;;;;;;5.37;1.53;;;27.50;99.90;;;;;;5032610;28;20585;-75
2023/10/19 09:43:46;;;;;;;2.70;1.20;;;27.60;99.90;;;;;;5032319;28;21053;-75
2023/10/19 09:46:16;;;;;;;2.53;1.10;;;27.80;99.90;;;;;;5032763;28;20632;-75
2023/10/19 09:48:48;;;;;;;3.50;1.20;;;28.20;99.90;;;;;;5032537;28;20626;-74
2023/10/19 09:51:16;;;;;;;3.77;1.20;;;28.60;99.90;;;;;;5014170;28;21109;-74
2023/10/19 09:53:56;;;;;;;4.33;1.30;;;28.90;99.90;;;;;;5032177;28;20643;-75
2023/10/19 09:56:30;;;;;;;4.17;1.10;;;28.90;99.90;;;;;;5031143;28;20604;-74
2023/10/19 09:59:00;;;;;;;3.77;1.83;;;28.60;99.90;;;;;;5032396;28;20655;-75
2023/10/19 10:01:27;;;;;;;4.73;1.20;;;28.30;99.90;;;;;;5031451;28;20595;-75
2023/10/19 10:03:54;;;;;;;3.30;1.50;;;27.60;99.90;;;;;;5031021;28;20629;-75
2023/10/19 10:06:50;;;;;;;3.10;1.13;;;26.90;99.90;;;;;;5047352;28;20585;-75
2023/10/19 10:09:23;;;;;;;4.03;1.30;;;26.30;99.90;;;;;;5030862;28;20681;-75
2023/10/19 10:11:52;;;;;;;6.77;1.00;;;25.70;99.90;;;;;;5030551;28;20592;-75
2023/10/19 10:14:32;;;;;;;4.83;1.47;;;25.30;99.90;;;;;;5030630;28;20623;-75
2023/10/19 10:17:02;;;;;;;4.43;1.10;;;24.70;99.90;;;;;;5032237;28;20643;-74
2023/10/19 10:19:28;;;;;;;2.73;1.00;;;24.40;99.90;;;;;;5032052;28;20975;-75
2023/10/19 10:22:11;;;;;;;6.50;1.27;;;24.10;99.90;;;;;;5031633;28;20917;-74
2023/10/19 10:24:41;;;;;;;3.30;1.17;;;23.90;99.90;;;;;;5031677;28;20656;-75
2023/10/19 10:27:07;;;;;;;5.00;1.00;;;24.00;99.90;;;;;;5031740;28;20584;-75
2023/10/19 10:29:33;;;;;;;3.63;0.90;;;24.30;99.90;;;;;;5031899;28;20582;-75
2023/10/19 10:31:59;;;;;;;3.73;1.40;;;24.70;99.90;;;;;;5031596;28;20676;-75
2023/10/19 10:34:37;;;;;;;8.20;1.20;;;25.10;99.90;;;;;;5031681;28;20604;-75
2023/10/19 10:37:14;;;;;;;5.63;1.00;;;25.30;99.90;;;;;;5029839;28;20640;-75
2023/10/19 10:39:40;;;;;;;3.80;1.40;;;25.60;99.90;;;;;;5031683;28;20593;-74
2023/10/19 10:42:10;;;;;;;5.20;1.70;;;25.50;99.90;;;;;;5031362;28;20638;-74
2023/10/19 10:44:39;;;;;;;6.83;2.43;;;25.40;99.90;;;;;;5031429;28;21011;-74
2023/10/19 10:47:22;;;;;;;3.50;1.20;;;25.30;99.90;;;;;;5029842;28;20967;-73
2023/10/19 10:49:53;;;;;;;4.07;1.80;;;25.10;99.90;;;;;;5031364;28;20679;-73
2023/10/19 10:52:36;;;;;;;5.53;1.80;;;24.90;99.90;;;;;;5030959;28;20576;-73
2023/10/19 10:55:13;;;;;;;3.87;1.60;;;24.70;99.90;;;;;;5030872;28;20580;-73
2023/10/19 10:57:40;;;;;;;5.13;1.20;;;24.50;99.90;;;;;;5022584;28;21248;-74
2023/10/19 11:00:17;;;;;;;5.40;1.10;;;24.40;99.90;;;;;;5030123;28;20599;-75
2023/10/19 11:02:45;;;;;;;3.30;1.10;;;24.20;99.90;;;;;;5030950;28;20620;-75
2023/10/19 11:05:20;;;;;;;6.60;1.00;;;24.00;99.90;;;;;;5030960;28;21078;-72
2023/10/19 11:08:04;;;;;;;6.17;1.20;;;23.90;99.90;;;;;;5029772;28;20695;-74
2023/10/19 11:10:31;;;;;;;4.10;1.50;;;23.70;99.90;;;;;;5031032;28;21041;-74
2023/10/19 11:13:11;;;;;;;2.93;0.80;;;23.50;99.90;;;;;;5030835;28;20576;-74
2023/10/19 11:15:38;;;;;;;4.90;1.67;;;23.30;99.90;;;;;;5029698;28;20688;-75
2023/10/19 11:18:04;;;;;;;7.87;3.90;;;23.20;99.90;;;;;;5031298;28;20608;-76
2023/10/19 11:20:30;;;;;;;10.97;3.90;;;23.00;99.90;;;;;;5030844;28;21369;-75
2023/10/19 11:22:57;;;;;;;5.93;2.40;;;22.80;99.90;;;;;;5030727;28;20719;-76
2023/10/19 11:25:27;;;;;;;6.83;2.00;;;22.70;99.90;;;;;;5029629;28;20730;-75
2023/10/19 11:27:57;;;;;;;4.00;1.60;;;22.60;99.90;;;;;;5013232;28;20616;-74
2023/10/19 11:30:32;;;;;;;8.30;1.77;;;22.50;99.90;;;;;;5029537;28;20600;-76
2023/10/19 11:33:00;;;;;;;6.10;1.83;;;22.50;99.90;;;;;;5030707;28;20642;-75
2023/10/19 11:35:31;;;;;;;3.00;1.33;;;22.50;99.90;;;;;;5013190;28;20646;-75
2023/10/19 11:38:02;;;;;;;8.33;1.43;;;22.40;99.90;;;;;;5029467;28;20627;-75
2023/10/19 11:40:28;;;;;;;4.67;1.50;;;22.40;99.90;;;;;;5030485;28;20588;-75
2023/10/19 11:42:58;;;;;;;5.07;1.10;;;22.20;99.90;;;;;;5029316;28;20692;-75
2023/10/19 11:45:24;;;;;;;4.63;1.30;;;22.20;99.90;;;;;;5029319;28;20643;-75
2023/10/19 11:47:50;;;;;;;6.17;1.70;;;22.10;99.90;;;;;;5012367;28;20632;-76
2023/10/19 11:50:18;;;;;;;4.90;1.57;;;22.00;99.90;;;;;;5034518;28;20303;-75
2023/10/19 11:52:45;;;;;;;5.10;1.30;;;22.00;99.90;;;;;;5034582;28;20587;-76
2023/10/19 11:55:15;;;;;;;7.77;1.60;;;22.00;99.90;;;;;;5033810;28;20815;-75
2023/10/19 11:57:43;;;;;;;4.60;1.37;;;21.90;99.90;;;;;;5034244;28;20607;-75
2023/10/19 12:00:23;;;;;;;4.67;1.20;;;21.80;99.90;;;;;;5034891;28;20664;-74
2023/10/19 12:02:49;;;;;;;3.80;1.37;;;21.80;99.90;;;;;;5033988;28;21145;-75
2023/10/19 12:05:15;;;;;;;3.93;1.20;;;21.70;99.90;;;;;;5033299;28;21009;-75
2023/10/19 12:07:41;;;;;;;6.73;1.20;;;21.60;99.90;;;;;;5034256;28;20610;-75
2023/10/19 12:10:09;;;;;;;4.97;1.73;;;21.50;99.90;;;;;;5034587;28;20181;-76
2023/10/19 12:12:38;;;;;;;5.00;1.20;;;21.50;99.90;;;;;;5033295;28;20577;-76
2023/10/19 12:15:08;;;;;;;6.53;1.60;;;21.40;99.90;;;;;;5035923;28;20588;-76
2023/10/19 12:17:34;;;;;;;7.47;1.70;;;21.40;99.90;;;;;;5034084;28;20705;-76
2023/10/19 12:20:00;;;;;;;4.77;1.40;;;21.40;99.90;;;;;;5035535;28;20683;-77
2023/10/19 12:22:32;;;;;;;4.13;1.60;;;21.30;99.90;;;;;;5033762;28;20580;-77
2023/10/19 12:24:59;;;;;;;4.37;1.53;;;21.20;99.90;;;;;;5033939;28;20632;-77
2023/10/19 12:27:25;;;;;;;9.83;4.03;;;21.10;99.90;;;;;;5034936;28;20616;-76
2023/10/19 12:29:54;;;;;;;5.90;3.37;;;21.10;99.90;;;;;;5034856;28;20635;-76
2023/10/19 12:32:21;;;;;;;7.17;4.20;;;21.00;99.90;;;;;;5032296;28;20576;-76
2023/10/19 12:34:52;;;;;;;6.60;2.77;;;21.00;99.90;;;;;;5034197;28;20583;-76
2023/10/19 12:37:19;;;;;;;4.47;1.40;;;21.00;99.90;;;;;;5032967;28;20622;-75
2023/10/19 12:39:47;;;;;;;2.87;1.20;;;20.90;99.90;;;;;;5034277;28;20588;-76
2023/10/19 12:42:14;;;;;;;8.80;1.73;;;20.90;99.90;;;;;;5032441;28;20953;-76
2023/10/19 12:44:41;;;;;;;4.97;1.70;;;20.80;99.90;;;;;;5034015;28;20636;-76
2023/10/19 12:47:17;;;;;;;5.40;2.50;;;20.70;99.90;;;;;;5033615;28;20604;-76
2023/10/19 12:49:45;;;;;;;4.67;2.70;;;20.70;99.90;;;;;;5034174;28;20641;-76
2023/10/19 12:52:11;;;;;;;6.03;2.93;;;20.70;99.90;;;;;;5033145;28;21013;-76
2023/10/19 12:54:38;;;;;;;4.00;1.80;;;20.60;99.90;;;;;;5033619;28;20611;-75
2023/10/19 12:57:07;;;;;;;4.47;2.10;;;20.60;99.90;;;;;;5032451;28;20584;-75
2023/10/19 12:59:37;;;;;;;5.53;1.90;;;20.60;99.90;;;;;;5032252;28;20649;-75
2023/10/19 13:02:03;;;;;;;5.87;1.87;;;20.50;99.90;;;;;;5032507;28;20592;-76
2023/10/19 13:04:30;;;;;;;5.67;2.20;;;20.50;99.90;;;;;;5033870;28;20697;-78
2023/10/19 13:06:57;;;;;;;5.03;1.50;;;20.50;99.90;;;;;;5031040;28;20619;-76
2023/10/19 13:09:33;;;;;;;4.30;1.63;;;20.40;99.90;;;;;;5033040;28;20632;-74
2023/10/19 13:12:00;;;;;;;6.23;1.70;;;20.30;99.90;;;;;;5032297;28;20600;-75